createdAt,value
2017-10-01T00:02:13.575Z,14.53
2017-10-01T00:04:41.474Z,16.77
2017-10-01T00:07:10.022Z,15.80
2017-10-01T00:09:38.285Z,12.53
2017-10-01T00:12:05.852Z,12.73
2017-10-01T00:14:33.402Z,16.17
2017-10-01T00:17:01.071Z,12.30
2017-10-01T00:19:29.454Z,16.50
2017-10-01T00:21:57.106Z,17.57
2017-10-01T00:24:24.979Z,13.13
2017-10-01T00:26:52.864Z,16.37
2017-10-01T00:29:20.873Z,19.23
2017-10-01T00:31:48.485Z,21.50
2017-10-01T00:34:16.045Z,18.73
2017-10-01T00:36:43.888Z,14.30
2017-10-01T00:39:11.619Z,16.83
2017-10-01T00:41:39.375Z,16.73
2017-10-01T00:44:07.147Z,15.67
2017-10-01T00:46:35.645Z,13.23
2017-10-01T00:49:03.686Z,13.07
2017-10-01T00:51:31.337Z,14.07
2017-10-01T00:53:59.212Z,14.07
2017-10-01T00:56:26.798Z,13.53
2017-10-01T00:58:54.417Z,14.37
2017-10-01T01:01:22.022Z,14.77
2017-10-01T01:03:49.794Z,16.00
2017-10-01T01:06:17.625Z,14.33
2017-10-01T01:08:45.535Z,17.10
2017-10-01T01:11:13.120Z,14.50
2017-10-01T01:13:40.759Z,16.93
2017-10-01T01:16:08.337Z,16.10
2017-10-01T01:18:35.901Z,14.53
2017-10-01T01:21:03.554Z,17.30
2017-10-01T01:23:31.867Z,19.40
2017-10-01T01:25:59.529Z,14.40
2017-10-01T01:28:27.323Z,18.17
2017-10-01T01:30:54.933Z,13.83
2017-10-01T01:33:22.731Z,12.03
2017-10-01T01:35:50.567Z,13.93
2017-10-01T01:38:18.465Z,17.37
2017-10-01T01:40:46.086Z,15.60
2017-10-01T01:43:15.093Z,12.97
2017-10-01T01:45:43.723Z,14.20
2017-10-01T01:48:11.412Z,13.57
2017-10-01T01:50:39.268Z,15.07
2017-10-01T01:53:06.934Z,14.13
2017-10-01T01:55:35.242Z,13.57
2017-10-01T01:58:03.110Z,14.13
2017-10-01T02:00:30.733Z,13.47
2017-10-01T02:02:58.303Z,13.03
2017-10-01T02:05:26.007Z,15.97
2017-10-01T02:07:53.614Z,15.67
2017-10-01T02:10:21.613Z,14.57
2017-10-01T02:12:49.570Z,15.10
2017-10-01T02:15:17.177Z,13.40
2017-10-01T02:17:45.770Z,16.90
2017-10-01T02:20:14.133Z,16.27
2017-10-01T02:22:42.034Z,13.77
2017-10-01T02:25:10.054Z,16.03
2017-10-01T02:27:37.748Z,14.87
2017-10-01T02:30:05.953Z,13.03
2017-10-01T02:32:33.620Z,14.93
2017-10-01T02:35:02.171Z,13.03
2017-10-01T02:37:30.182Z,18.30
2017-10-01T02:39:58.015Z,19.60
2017-10-01T02:42:25.982Z,19.30
2017-10-01T02:44:53.652Z,17.67
2017-10-01T02:47:21.266Z,18.13
2017-10-01T02:49:49.395Z,15.73
2017-10-01T02:52:17.719Z,19.17
2017-10-01T02:54:45.297Z,14.33
2017-10-01T02:57:12.959Z,17.37
2017-10-01T02:59:40.608Z,16.30
2017-10-01T03:02:10.190Z,15.73
2017-10-01T03:04:37.831Z,14.33
2017-10-01T03:07:05.637Z,13.50
2017-10-01T03:09:34.137Z,14.70
2017-10-01T03:12:01.724Z,17.20
2017-10-01T03:14:29.628Z,16.33
2017-10-01T03:16:57.259Z,18.63
2017-10-01T03:19:25.129Z,15.10
2017-10-01T03:21:52.979Z,16.60
2017-10-01T03:24:20.803Z,25.23
2017-10-01T03:26:49.903Z,18.73
2017-10-01T03:29:17.559Z,18.57
2017-10-01T03:31:45.443Z,13.80
2017-10-01T03:34:13.988Z,21.17
2017-10-01T03:36:42.453Z,15.90
2017-10-01T03:39:10.147Z,17.57
2017-10-01T03:41:38.039Z,14.40
2017-10-01T03:44:06.125Z,14.80
2017-10-01T03:46:33.768Z,21.50
2017-10-01T03:49:01.659Z,16.27
2017-10-01T03:51:30.007Z,17.17
2017-10-01T03:53:57.868Z,14.90
2017-10-01T03:56:26.401Z,13.40
2017-10-01T03:58:53.981Z,18.87
2017-10-01T04:01:22.063Z,16.30
2017-10-01T04:03:49.889Z,18.13
2017-10-01T04:06:17.707Z,16.33
2017-10-01T04:08:45.482Z,16.73
2017-10-01T04:11:14.167Z,16.20
2017-10-01T04:13:41.777Z,16.90
2017-10-01T04:16:09.455Z,14.73
2017-10-01T04:18:37.076Z,15.70
2017-10-01T04:21:05.463Z,17.30
2017-10-01T04:23:33.563Z,26.70
2017-10-01T04:26:01.319Z,19.40
2017-10-01T04:28:29.874Z,15.23
2017-10-01T04:30:59.116Z,19.57
2017-10-01T04:33:26.732Z,15.27
2017-10-01T04:35:54.557Z,17.23
2017-10-01T04:38:22.942Z,19.23
2017-10-01T04:40:50.577Z,20.90
2017-10-01T04:43:18.201Z,26.60
2017-10-01T04:45:46.997Z,16.87
2017-10-01T04:48:14.595Z,23.43
2017-10-01T04:50:42.947Z,19.67
2017-10-01T04:53:11.530Z,16.30
2017-10-01T04:55:40.253Z,14.93
2017-10-01T04:58:07.802Z,17.63
2017-10-01T05:00:36.119Z,17.47
2017-10-01T05:03:03.683Z,21.30
2017-10-01T05:05:31.321Z,19.37
2017-10-01T05:07:59.137Z,22.27
2017-10-01T05:10:26.803Z,17.37
2017-10-01T05:12:54.843Z,13.53
2017-10-01T05:15:22.814Z,16.87
2017-10-01T05:17:50.407Z,18.93
2017-10-01T05:20:18.166Z,20.27
2017-10-01T05:22:45.850Z,17.67
2017-10-01T05:25:13.810Z,17.67
2017-10-01T05:27:41.382Z,15.27
2017-10-01T05:30:09.106Z,18.10
2017-10-01T05:32:36.677Z,22.73
2017-10-01T05:35:04.307Z,21.60
2017-10-01T05:37:32.420Z,19.17
2017-10-01T05:40:00.213Z,18.63
2017-10-01T05:42:28.812Z,17.90
2017-10-01T05:44:56.458Z,19.73
2017-10-01T05:47:24.009Z,20.70
2017-10-01T05:49:51.786Z,18.17
2017-10-01T05:52:19.578Z,18.47
2017-10-01T05:54:47.231Z,19.20
2017-10-01T05:57:15.016Z,18.97
2017-10-01T05:59:42.626Z,20.80
2017-10-01T06:02:10.298Z,16.40
2017-10-01T06:04:37.901Z,19.70
2017-10-01T06:07:05.710Z,20.13
2017-10-01T06:09:33.330Z,20.10
2017-10-01T06:12:01.000Z,22.80
2017-10-01T06:14:29.550Z,20.97
2017-10-01T06:16:57.150Z,22.40
2017-10-01T06:19:24.922Z,24.40
2017-10-01T06:21:52.971Z,21.03
2017-10-01T06:24:20.696Z,22.57
2017-10-01T06:26:48.253Z,18.77
2017-10-01T06:29:16.697Z,18.40
2017-10-01T06:31:44.365Z,16.77
2017-10-01T06:34:12.091Z,17.27
2017-10-01T06:36:39.680Z,18.77
2017-10-01T06:39:07.368Z,15.60
2017-10-01T06:41:35.041Z,16.00
2017-10-01T06:44:02.718Z,15.17
2017-10-01T06:46:31.000Z,14.53
2017-10-01T06:48:58.762Z,17.97
2017-10-01T06:51:26.497Z,22.03
2017-10-01T06:53:54.247Z,18.40
2017-10-01T06:56:21.925Z,13.33
2017-10-01T06:59:04.253Z,19.80
2017-10-01T07:01:32.477Z,16.30
2017-10-01T07:04:00.961Z,13.90
2017-10-01T07:06:40.915Z,16.87
2017-10-01T07:09:09.775Z,25.67
2017-10-01T07:11:39.027Z,16.33
2017-10-01T07:14:07.007Z,14.00
2017-10-01T07:16:35.585Z,14.40
2017-10-01T07:19:03.481Z,12.20
2017-10-01T07:21:31.205Z,12.47
2017-10-01T07:23:59.138Z,12.33
2017-10-01T07:26:27.294Z,16.07
2017-10-01T07:28:55.070Z,13.83
2017-10-01T07:31:23.082Z,10.80
2017-10-01T07:33:50.861Z,12.90
2017-10-01T07:36:18.622Z,13.40
2017-10-01T07:38:48.200Z,12.40
2017-10-01T07:41:15.953Z,13.73
2017-10-01T07:43:44.878Z,12.83
2017-10-01T07:46:12.619Z,13.53
2017-10-01T07:48:40.973Z,16.33
2017-10-01T07:51:08.770Z,15.10
2017-10-01T07:53:36.550Z,13.30
2017-10-01T07:56:04.321Z,17.70
2017-10-01T07:58:32.098Z,13.60
2017-10-01T08:00:59.852Z,12.57
2017-10-01T08:03:28.085Z,15.63
2017-10-01T08:05:55.701Z,12.70
2017-10-01T08:08:23.280Z,15.93
2017-10-01T08:10:51.487Z,13.30
2017-10-01T08:13:20.020Z,14.97
2017-10-01T08:15:47.640Z,19.80
2017-10-01T08:18:15.421Z,15.80
2017-10-01T08:20:43.071Z,15.60
2017-10-01T08:23:10.706Z,15.87
2017-10-01T08:25:38.607Z,11.63
2017-10-01T08:28:06.390Z,14.37
2017-10-01T08:30:34.220Z,10.17
2017-10-01T08:33:04.020Z,16.03
2017-10-01T08:35:32.916Z,11.03
2017-10-01T08:38:01.219Z,13.23
2017-10-01T08:40:29.480Z,12.50
2017-10-01T08:42:57.527Z,9.10
2017-10-01T08:45:25.239Z,19.33
2017-10-01T08:47:52.771Z,9.30
2017-10-01T08:50:21.138Z,8.63
2017-10-01T08:52:48.852Z,11.53
2017-10-01T08:55:16.583Z,9.60
2017-10-01T08:57:44.142Z,9.43
2017-10-01T09:00:11.866Z,9.10
2017-10-01T09:02:39.592Z,10.90
2017-10-01T09:05:07.929Z,11.70
2017-10-01T09:07:36.519Z,9.97
2017-10-01T09:10:04.167Z,16.23
2017-10-01T09:12:31.940Z,15.30
2017-10-01T09:14:59.941Z,12.87
2017-10-01T09:17:27.866Z,12.47
2017-10-01T09:19:55.398Z,15.03
2017-10-01T09:22:22.956Z,16.17
2017-10-01T09:24:51.137Z,16.37
2017-10-01T09:27:18.914Z,19.40
2017-10-01T09:29:47.094Z,16.47
2017-10-01T09:32:14.679Z,16.43
2017-10-01T09:34:43.286Z,12.60
2017-10-01T09:37:10.897Z,9.47
2017-10-01T09:39:38.460Z,12.80
2017-10-01T09:42:05.991Z,11.70
2017-10-01T09:44:34.526Z,11.47
2017-10-01T09:47:02.079Z,10.60
2017-10-01T09:49:29.675Z,14.00
2017-10-01T09:51:57.442Z,11.20
2017-10-01T09:54:24.985Z,9.93
2017-10-01T09:56:52.746Z,10.50
2017-10-01T09:59:20.344Z,10.53
2017-10-01T10:01:48.117Z,11.20
2017-10-01T10:04:15.831Z,10.60
2017-10-01T10:06:44.173Z,8.97
2017-10-01T10:09:12.086Z,8.73
2017-10-01T10:11:39.745Z,11.07
2017-10-01T10:14:07.610Z,11.60
2017-10-01T10:16:35.394Z,11.37
2017-10-01T10:19:03.196Z,11.37
2017-10-01T10:21:30.958Z,12.13
2017-10-01T10:23:58.775Z,15.90
2017-10-01T10:26:27.530Z,15.07
2017-10-01T10:28:55.316Z,11.40
2017-10-01T10:34:04.922Z,10.27
2017-10-01T10:36:32.500Z,9.83
2017-10-01T10:39:00.011Z,12.27
2017-10-01T10:41:27.816Z,9.57
2017-10-01T10:43:55.867Z,12.20
2017-10-01T10:46:23.401Z,10.10
2017-10-01T10:48:51.027Z,10.10
2017-10-01T10:51:19.600Z,14.23
2017-10-01T10:53:47.213Z,10.67
2017-10-01T10:56:14.765Z,10.30
2017-10-01T10:58:42.343Z,12.40
2017-10-01T11:01:09.963Z,8.97
2017-10-01T11:03:37.811Z,10.77
2017-10-01T11:06:05.399Z,10.60
2017-10-01T11:08:32.988Z,11.70
2017-10-01T11:11:00.594Z,10.80
2017-10-01T11:13:28.334Z,9.07
2017-10-01T11:15:55.941Z,9.30
2017-10-01T11:18:23.582Z,10.77
2017-10-01T11:20:51.187Z,11.43
2017-10-01T11:23:18.819Z,11.87
2017-10-01T11:25:46.572Z,14.20
2017-10-01T11:28:14.877Z,10.90
2017-10-01T11:30:42.514Z,11.27
2017-10-01T11:33:10.037Z,10.97
2017-10-01T11:35:38.093Z,13.10
2017-10-01T11:38:05.678Z,13.23
2017-10-01T11:40:33.312Z,11.57
2017-10-01T11:43:01.043Z,9.63
2017-10-01T11:45:28.689Z,10.70
2017-10-01T11:47:57.264Z,11.47
2017-10-01T11:50:24.779Z,8.83
2017-10-01T11:52:53.211Z,11.93
2017-10-01T11:55:20.814Z,10.37
2017-10-01T11:57:48.368Z,11.10
2017-10-01T12:00:15.993Z,9.80
2017-10-01T12:02:43.748Z,10.37
2017-10-01T12:05:11.364Z,11.47
2017-10-01T12:07:39.881Z,10.30
2017-10-01T12:10:08.647Z,10.80
2017-10-01T12:12:36.282Z,8.93
2017-10-01T12:15:05.422Z,7.80
2017-10-01T12:17:32.964Z,10.47
2017-10-01T12:20:00.702Z,9.87
2017-10-01T12:22:28.293Z,10.00
2017-10-01T12:24:56.058Z,8.40
2017-10-01T12:27:23.615Z,10.17
2017-10-01T12:29:52.720Z,12.77
2017-10-01T12:32:20.482Z,9.07
2017-10-01T12:34:48.278Z,9.70
2017-10-01T12:37:16.579Z,11.13
2017-10-01T12:39:44.922Z,9.20
2017-10-01T12:42:12.987Z,17.60
2017-10-01T12:44:40.801Z,11.03
2017-10-01T12:47:08.405Z,11.10
2017-10-01T12:49:36.922Z,12.27
2017-10-01T12:52:04.558Z,10.27
2017-10-01T12:54:32.381Z,11.47
2017-10-01T12:56:59.978Z,9.13
2017-10-01T12:59:28.002Z,11.80
2017-10-01T13:02:01.287Z,9.93
2017-10-01T13:04:29.447Z,12.73
2017-10-01T13:06:57.133Z,11.70
2017-10-01T13:09:24.802Z,11.90
2017-10-01T13:11:52.615Z,13.23
2017-10-01T13:14:21.187Z,13.03
2017-10-01T13:16:48.751Z,13.13
2017-10-01T13:19:16.699Z,13.40
2017-10-01T13:21:44.370Z,12.37
2017-10-01T13:24:12.054Z,15.50
2017-10-01T13:26:39.687Z,18.30
2017-10-01T13:29:07.303Z,11.23
2017-10-01T13:31:35.733Z,14.03
2017-10-01T13:34:03.418Z,14.97
2017-10-01T13:36:31.003Z,11.70
2017-10-01T13:39:03.530Z,12.83
2017-10-01T13:41:31.291Z,11.40
2017-10-01T13:43:59.089Z,13.30
2017-10-01T13:46:27.630Z,15.70
2017-10-01T13:48:55.203Z,10.00
2017-10-01T13:51:22.847Z,17.50
2017-10-01T13:53:50.482Z,14.80
2017-10-01T13:56:18.086Z,12.50
2017-10-01T13:58:46.947Z,18.33
2017-10-01T14:01:15.361Z,16.30
2017-10-01T14:03:43.161Z,17.90
2017-10-01T14:06:12.691Z,224.20
2017-10-01T14:08:40.273Z,55.07
2017-10-01T14:11:08.083Z,27.90
2017-10-01T14:13:36.511Z,42.77
2017-10-01T14:16:04.499Z,11.17
2017-10-01T14:18:34.402Z,9.97
2017-10-01T14:21:07.919Z,11.80
2017-10-01T14:23:41.380Z,16.83
2017-10-01T14:26:15.479Z,15.83
2017-10-01T14:28:43.384Z,18.53
2017-10-01T14:31:17.846Z,11.80
2017-10-01T14:33:50.707Z,11.30
2017-10-01T14:36:21.198Z,14.90
2017-10-01T14:38:50.718Z,13.40
2017-10-01T14:41:19.553Z,14.53
2017-10-01T14:43:47.234Z,15.53
2017-10-01T14:46:15.440Z,16.43
2017-10-01T14:48:45.229Z,21.57
2017-10-01T14:51:14.923Z,15.73
2017-10-01T14:53:44.771Z,15.40
2017-10-01T14:56:14.294Z,14.63
2017-10-01T14:58:41.997Z,14.67
2017-10-01T15:01:12.176Z,14.53
2017-10-01T15:03:42.046Z,20.43
2017-10-01T15:06:10.084Z,16.80
2017-10-01T15:08:39.055Z,14.97
2017-10-01T15:11:06.854Z,17.63
2017-10-01T15:13:34.555Z,16.57
2017-10-01T15:16:05.612Z,16.70
2017-10-01T15:27:57.133Z,18.90
2017-10-01T15:30:26.880Z,15.63
2017-10-01T15:33:00.380Z,20.40
2017-10-01T15:35:29.201Z,24.67
2017-10-01T15:38:15.939Z,25.63
2017-10-01T15:40:45.260Z,21.70
2017-10-01T15:43:14.447Z,19.63
2017-10-01T15:45:42.238Z,22.47
2017-10-01T15:48:09.967Z,19.83
2017-10-01T15:51:02.676Z,23.53
2017-10-01T15:56:57.431Z,20.13
2017-10-01T15:59:26.840Z,22.10
2017-10-01T16:01:54.442Z,20.27
2017-10-01T16:04:22.384Z,23.17
2017-10-01T16:06:52.379Z,20.63
2017-10-01T16:09:20.370Z,23.83
2017-10-01T16:11:48.298Z,23.60
2017-10-01T16:14:16.442Z,21.87
2017-10-01T16:16:54.049Z,26.33
2017-10-01T16:19:22.226Z,25.80
2017-10-01T16:21:49.787Z,27.27
2017-10-01T16:24:18.194Z,21.37
2017-10-01T16:26:46.717Z,25.03
2017-10-01T16:29:15.214Z,28.77
2017-10-01T16:31:42.905Z,24.00
2017-10-01T16:34:10.614Z,26.73
2017-10-01T16:36:39.095Z,25.90
2017-10-01T16:39:06.812Z,27.57
2017-10-01T16:41:35.212Z,28.33
2017-10-01T16:44:03.519Z,30.03
2017-10-01T16:46:31.151Z,36.23
2017-10-01T16:48:58.745Z,36.83
2017-10-01T16:51:26.706Z,43.93
2017-10-01T16:53:54.528Z,40.43
2017-10-01T16:56:22.856Z,35.60
2017-10-01T16:58:50.581Z,43.00
2017-10-01T17:01:18.385Z,46.17
2017-10-01T17:03:46.167Z,43.63
2017-10-01T17:06:14.357Z,39.80
2017-10-01T17:08:42.148Z,43.53
2017-10-01T17:11:09.952Z,41.07
2017-10-01T17:13:38.018Z,36.90
2017-10-01T17:16:05.670Z,37.23
2017-10-01T17:18:35.224Z,38.20
2017-10-01T17:21:03.147Z,36.50
2017-10-01T17:23:33.358Z,35.37
2017-10-01T17:26:02.069Z,40.77
2017-10-01T17:28:29.843Z,39.80
2017-10-01T17:30:57.616Z,54.27
2017-10-01T17:33:25.362Z,43.77
2017-10-01T17:35:53.610Z,41.97
2017-10-01T17:38:21.323Z,35.57
2017-10-01T17:40:49.474Z,36.50
2017-10-01T17:43:17.181Z,51.20
2017-10-01T17:45:44.957Z,40.07
2017-10-01T17:48:13.610Z,42.23
2017-10-01T17:50:42.047Z,35.03
2017-10-01T17:53:19.680Z,40.43
2017-10-01T17:55:48.341Z,35.13
2017-10-01T17:58:16.874Z,39.30
2017-10-01T18:00:44.925Z,34.70
2017-10-01T18:03:17.943Z,25.70
2017-10-01T18:05:45.515Z,26.90
2017-10-01T18:08:13.093Z,29.50
2017-10-01T18:10:41.796Z,24.83
2017-10-01T18:13:09.481Z,28.17
2017-10-01T18:15:37.981Z,28.87
2017-10-01T18:18:05.851Z,28.77
2017-10-01T18:20:33.937Z,33.90
2017-10-01T18:23:02.031Z,37.40
2017-10-01T18:25:30.055Z,42.23
2017-10-01T18:27:58.825Z,44.83
2017-10-01T18:30:26.431Z,53.47
2017-10-01T18:32:54.209Z,52.93
2017-10-01T18:35:22.074Z,56.67
2017-10-01T18:37:50.318Z,54.17
2017-10-01T18:40:17.963Z,58.70
2017-10-01T18:42:46.000Z,51.10
2017-10-01T18:45:15.399Z,47.30
2017-10-01T18:47:43.910Z,67.53
2017-10-01T18:50:13.162Z,68.83
2017-10-01T18:52:40.852Z,57.10
2017-10-01T18:55:13.432Z,53.77
2017-10-01T18:57:43.779Z,50.40
2017-10-01T19:00:13.021Z,39.67
2017-10-01T19:02:41.579Z,34.03
2017-10-01T19:05:09.151Z,31.23
2017-10-01T19:07:39.853Z,30.73
2017-10-01T19:10:07.522Z,31.47
2017-10-01T19:12:35.939Z,32.30
2017-10-01T19:18:32.087Z,38.23
2017-10-01T19:21:00.476Z,29.57
2017-10-01T19:23:28.895Z,27.47
2017-10-01T19:25:56.547Z,32.37
2017-10-01T19:28:26.972Z,29.23
2017-10-01T19:30:54.585Z,28.40
2017-10-01T19:33:22.450Z,33.67
2017-10-01T19:35:51.984Z,41.17
2017-10-01T19:38:21.688Z,44.57
2017-10-01T19:40:51.564Z,43.80
2017-10-01T19:43:21.439Z,44.13
2017-10-01T19:45:54.069Z,49.77
2017-10-01T19:48:25.787Z,43.80
2017-10-01T19:50:58.428Z,54.40
2017-10-01T19:56:04.787Z,59.93
2017-10-01T20:01:27.150Z,49.00
2017-10-01T20:03:58.214Z,47.73
2017-10-01T20:06:29.118Z,52.67
2017-10-01T20:09:00.618Z,50.50
2017-10-01T20:11:32.987Z,40.10
2017-10-01T20:14:08.454Z,45.53
2017-10-01T20:16:36.182Z,47.20
2017-10-01T20:19:03.784Z,49.07
2017-10-01T20:21:32.437Z,50.30
2017-10-01T20:24:00.490Z,38.97
2017-10-01T20:26:28.235Z,46.50
2017-10-01T20:28:56.165Z,44.47
2017-10-01T20:31:24.796Z,42.40
2017-10-01T20:33:52.948Z,49.57
2017-10-01T20:36:21.133Z,46.43
2017-10-01T20:38:49.903Z,45.93
2017-10-01T20:41:18.844Z,37.00
2017-10-01T20:43:46.677Z,38.13
2017-10-01T20:46:14.997Z,34.30
2017-10-01T20:48:43.653Z,40.40
2017-10-01T20:51:11.423Z,39.87
2017-10-01T20:53:39.109Z,45.03
2017-10-01T20:56:06.777Z,37.10
2017-10-01T20:58:35.597Z,44.07
2017-10-01T21:01:03.214Z,48.90
2017-10-01T21:03:31.049Z,49.70
2017-10-01T21:05:58.831Z,42.87
2017-10-01T21:08:26.449Z,38.63
2017-10-01T21:10:54.084Z,42.60
2017-10-01T21:13:21.673Z,48.87
2017-10-01T21:15:49.459Z,40.33
2017-10-01T21:18:17.803Z,42.30
2017-10-01T21:20:45.421Z,33.10
2017-10-01T21:23:13.022Z,34.50
2017-10-01T21:25:40.638Z,29.87
2017-10-01T21:28:08.612Z,30.43
2017-10-01T21:30:36.921Z,25.20
2017-10-01T21:33:04.558Z,29.30
2017-10-01T21:35:32.933Z,35.33
2017-10-01T21:38:00.592Z,25.30
2017-10-01T21:40:29.016Z,26.60
2017-10-01T21:42:56.659Z,27.13
2017-10-01T21:45:25.313Z,23.10
2017-10-01T21:47:53.546Z,33.10
2017-10-01T21:50:21.587Z,28.30
2017-10-01T21:52:49.383Z,27.30
2017-10-01T21:55:17.087Z,27.50
2017-10-01T21:57:44.681Z,25.20
2017-10-01T22:00:12.291Z,25.17
2017-10-01T22:02:41.398Z,25.10
2017-10-01T22:05:09.235Z,23.70
2017-10-01T22:07:36.842Z,24.37
2017-10-01T22:10:04.692Z,27.10
2017-10-01T22:12:32.338Z,22.63
2017-10-01T22:15:00.897Z,25.10
2017-10-01T22:17:29.166Z,25.03
2017-10-01T22:19:56.760Z,30.90
2017-10-01T22:22:24.440Z,22.60
2017-10-01T22:24:52.957Z,25.97
2017-10-01T22:27:21.643Z,26.90
2017-10-01T22:29:50.157Z,22.97
2017-10-01T22:32:18.112Z,23.43
2017-10-01T22:34:45.878Z,23.23
2017-10-01T22:37:13.542Z,21.50
2017-10-01T22:39:41.323Z,27.10
2017-10-01T22:42:09.630Z,23.83
2017-10-01T22:44:37.557Z,21.00
2017-10-01T22:47:05.587Z,22.93
2017-10-01T22:49:33.457Z,23.77
2017-10-01T22:52:01.091Z,23.70
2017-10-01T22:54:28.742Z,25.57
2017-10-01T22:56:56.653Z,27.37
2017-10-01T22:59:39.834Z,27.57
2017-10-01T23:02:07.483Z,24.07
2017-10-01T23:04:35.084Z,26.43
2017-10-01T23:07:02.839Z,25.17
2017-10-01T23:09:30.410Z,23.87
2017-10-01T23:11:58.194Z,23.03
2017-10-01T23:14:25.830Z,19.80
2017-10-01T23:16:53.986Z,21.20
2017-10-01T23:19:21.613Z,26.13
2017-10-01T23:21:50.638Z,21.23
2017-10-01T23:24:18.269Z,24.40
2017-10-01T23:26:46.274Z,25.23
2017-10-01T23:29:13.873Z,22.30
2017-10-01T23:31:41.500Z,27.00
2017-10-01T23:34:09.299Z,28.27
2017-10-01T23:36:36.832Z,19.83
2017-10-01T23:39:04.437Z,23.73
2017-10-01T23:41:33.076Z,25.63
2017-10-01T23:44:00.974Z,28.20
2017-10-01T23:46:28.524Z,23.80
2017-10-01T23:48:56.204Z,21.77
2017-10-01T23:51:23.747Z,24.33
2017-10-01T23:53:51.376Z,25.33
2017-10-01T23:56:20.650Z,26.50
2017-10-01T23:58:48.257Z,22.30
